Time;durP1;ratioP1;P1;durP2;ratioP2;P2;SDS_P1;SDS_P2;PMS_P1;PMS_P2;Temp;Humidity;BMP_temperature;BMP_pressure;BME280_temperature;BME280_humidity;BME280_pressure;Samples;Min_cycle;Max_cycle;Signal;HPM_P1;HPM_P2
2023/12/05 00:00:43;;;;;;;9.30;6.18;;;4.30;99.90;;;;;;4156250;28;20040;-75
2023/12/05 00:02:44;;;;;;;9.15;6.75;;;4.40;99.90;;;;;;4149620;28;20026;-74
2023/12/05 00:04:45;;;;;;;9.30;6.57;;;4.30;99.90;;;;;;4145498;28;20088;-75
2023/12/05 00:06:46;;;;;;;10.88;6.65;;;4.30;99.90;;;;;;4130710;28;20124;-75
2023/12/05 00:08:46;;;;;;;12.02;7.15;;;4.40;99.90;;;;;;4122241;28;20405;-75
2023/12/05 00:10:47;;;;;;;10.10;7.28;;;4.40;99.90;;;;;;4150636;28;20034;-75
2023/12/05 00:12:47;;;;;;;11.48;6.68;;;4.40;99.90;;;;;;4152148;28;20052;-75
2023/12/05 00:14:48;;;;;;;10.20;6.65;;;4.40;99.90;;;;;;4152643;28;20113;-75
2023/12/05 00:16:49;;;;;;;9.85;6.90;;;4.40;99.90;;;;;;4158729;28;20040;-75
2023/12/05 00:18:50;;;;;;;9.20;6.53;;;4.40;99.90;;;;;;4156776;28;20049;-74
2023/12/05 00:20:51;;;;;;;10.25;7.07;;;4.40;99.90;;;;;;4150514;28;20071;-75
2023/12/05 00:22:51;;;;;;;11.10;7.15;;;4.40;99.90;;;;;;4157948;28;20026;-75
2023/12/05 00:24:52;;;;;;;9.57;6.20;;;4.40;99.90;;;;;;4149073;28;20038;-75
2023/12/05 00:26:52;;;;;;;12.82;7.63;;;4.50;99.90;;;;;;4147771;28;20111;-75
2023/12/05 00:28:53;;;;;;;10.77;7.25;;;4.50;99.90;;;;;;4150168;28;20048;-75
2023/12/05 00:30:53;;;;;;;10.00;7.22;;;4.50;99.90;;;;;;4148423;28;20403;-75
2023/12/05 00:32:54;;;;;;;10.48;7.53;;;4.50;99.90;;;;;;4158510;28;20526;-75
2023/12/05 00:34:55;;;;;;;10.85;6.75;;;4.50;99.90;;;;;;4153382;28;20106;-75
2023/12/05 00:36:55;;;;;;;9.93;6.88;;;4.50;99.90;;;;;;4146200;28;20515;-75
2023/12/05 00:38:56;;;;;;;9.55;6.78;;;4.50;99.90;;;;;;4151294;28;20419;-75
2023/12/05 00:40:59;;;;;;;10.52;6.65;;;4.50;99.90;;;;;;4147421;28;20037;-75
2023/12/05 00:43:00;;;;;;;10.07;7.00;;;4.50;99.90;;;;;;4150177;28;20439;-75
2023/12/05 00:45:01;;;;;;;9.98;6.60;;;4.50;99.90;;;;;;4157472;28;20033;-76
2023/12/05 00:47:04;;;;;;;9.30;6.68;;;4.50;99.90;;;;;;4153558;28;20026;-76
2023/12/05 00:49:05;;;;;;;9.88;6.63;;;4.50;99.90;;;;;;4150939;28;20042;-76
2023/12/05 00:51:06;;;;;;;11.00;7.22;;;4.50;99.90;;;;;;4152702;28;20511;-75
2023/12/05 00:53:06;;;;;;;10.70;7.05;;;4.50;99.90;;;;;;4140739;28;20451;-75
2023/12/05 00:55:07;;;;;;;10.43;7.55;;;4.50;99.90;;;;;;4131029;28;20030;-75
2023/12/05 00:57:07;;;;;;;11.05;6.78;;;4.60;99.90;;;;;;4138732;28;20113;-75
2023/12/05 00:59:08;;;;;;;10.35;7.03;;;4.50;99.90;;;;;;4153892;28;20503;-75
2023/12/05 01:01:09;;;;;;;10.43;7.18;;;4.60;99.90;;;;;;4151079;28;20041;-74
2023/12/05 01:03:09;;;;;;;9.73;7.43;;;4.60;99.90;;;;;;4157469;28;20057;-75
2023/12/05 01:05:10;;;;;;;11.50;7.18;;;4.60;99.90;;;;;;4131613;28;20050;-75
2023/12/05 01:07:12;;;;;;;11.35;7.53;;;4.60;99.90;;;;;;4150859;28;20053;-75
2023/12/05 01:09:13;;;;;;;10.48;6.97;;;4.60;99.90;;;;;;4152820;28;20116;-74
2023/12/05 01:11:15;;;;;;;10.43;6.97;;;4.60;99.90;;;;;;4157317;28;20483;-75
2023/12/05 01:13:15;;;;;;;11.27;7.65;;;4.60;99.90;;;;;;4159378;28;20327;-75
2023/12/05 01:15:16;;;;;;;10.85;7.38;;;4.60;99.90;;;;;;4145614;28;20153;-74
2023/12/05 01:17:17;;;;;;;10.43;6.85;;;4.60;99.90;;;;;;4150269;28;20499;-74
2023/12/05 01:19:17;;;;;;;11.40;7.25;;;4.60;99.90;;;;;;4130056;28;20095;-74
2023/12/05 01:21:18;;;;;;;11.20;7.30;;;4.60;99.90;;;;;;4154035;28;20033;-74
2023/12/05 01:23:18;;;;;;;11.20;7.97;;;4.60;99.90;;;;;;4140673;28;20103;-74
2023/12/05 01:25:19;;;;;;;10.00;6.95;;;4.60;99.90;;;;;;4150555;28;20499;-75
2023/12/05 01:27:20;;;;;;;10.60;7.40;;;4.70;99.90;;;;;;4152185;28;20038;-74
2023/12/05 01:29:20;;;;;;;11.57;7.03;;;4.70;99.90;;;;;;4153617;28;20042;-75
2023/12/05 01:31:21;;;;;;;10.77;6.63;;;4.70;99.90;;;;;;4149529;28;20434;-74
2023/12/05 01:33:21;;;;;;;11.18;7.13;;;4.70;99.90;;;;;;4154531;28;20041;-74
2023/12/05 01:35:22;;;;;;;11.52;7.72;;;4.70;99.90;;;;;;4157585;28;20072;-74
2023/12/05 01:37:23;;;;;;;10.30;7.07;;;4.70;99.90;;;;;;4150187;28;20041;-74
2023/12/05 01:39:23;;;;;;;10.05;7.20;;;4.70;99.90;;;;;;4137530;28;20056;-74
2023/12/05 01:41:24;;;;;;;9.82;6.95;;;4.70;99.90;;;;;;4151750;28;20112;-74
2023/12/05 01:43:24;;;;;;;11.82;7.90;;;4.70;99.90;;;;;;4150082;28;20450;-74
2023/12/05 01:45:25;;;;;;;10.98;7.18;;;4.70;99.90;;;;;;4146628;28;20604;-75
2023/12/05 01:47:26;;;;;;;11.32;7.47;;;4.70;99.90;;;;;;4130982;28;20539;-75
2023/12/05 01:49:26;;;;;;;11.25;7.20;;;4.70;99.90;;;;;;4132147;28;20046;-74
2023/12/05 01:51:27;;;;;;;9.65;6.70;;;4.70;99.90;;;;;;4150540;28;20045;-75
2023/12/05 01:53:30;;;;;;;11.40;7.65;;;4.70;99.90;;;;;;4152535;28;20406;-75
2023/12/05 01:55:31;;;;;;;10.85;7.50;;;4.70;99.90;;;;;;4152630;28;20038;-72
2023/12/05 01:57:33;;;;;;;12.23;7.50;;;4.70;99.90;;;;;;4137688;28;20049;-72
2023/12/05 01:59:34;;;;;;;13.60;7.95;;;4.80;99.90;;;;;;4148418;28;20149;-71
2023/12/05 02:01:36;;;;;;;10.15;7.47;;;4.70;99.90;;;;;;4150566;28;20030;-73
2023/12/05 02:03:38;;;;;;;11.35;7.32;;;4.70;99.90;;;;;;4151422;28;20081;-72
2023/12/05 02:05:39;;;;;;;10.23;7.25;;;4.80;99.90;;;;;;4140981;28;20531;-73
2023/12/05 02:07:40;;;;;;;10.45;7.32;;;4.80;99.90;;;;;;4136607;28;20029;-74
2023/12/05 02:09:44;;;;;;;11.70;7.97;;;4.80;99.90;;;;;;4152965;28;20391;-72
2023/12/05 02:11:44;;;;;;;10.60;7.93;;;4.80;99.90;;;;;;4155438;28;20112;-72
2023/12/05 02:13:47;;;;;;;9.60;7.13;;;4.80;99.90;;;;;;4145402;28;20022;-74
2023/12/05 02:15:55;;;;;;;9.68;7.20;;;4.80;99.90;;;;;;4147208;28;20026;-72
2023/12/05 02:18:14;;;;;;;12.50;7.65;;;4.80;99.90;;;;;;4135961;28;20042;-72
2023/12/05 02:20:17;;;;;;;10.27;7.05;;;4.80;99.90;;;;;;4153786;28;20587;-72
2023/12/05 02:22:27;;;;;;;11.23;8.00;;;4.80;99.90;;;;;;4130651;28;20034;-72
2023/12/05 02:24:56;;;;;;;12.65;8.32;;;4.90;99.90;;;;;;4151870;28;20053;-72
2023/12/05 02:27:15;;;;;;;10.50;7.30;;;4.90;99.90;;;;;;4150811;28;20030;-75
2023/12/05 02:29:15;;;;;;;11.55;7.22;;;4.90;99.90;;;;;;4152626;28;20065;-74
2023/12/05 02:31:16;;;;;;;10.27;7.47;;;4.90;99.90;;;;;;4152661;28;20037;-74
2023/12/05 02:33:17;;;;;;;10.23;7.45;;;4.90;99.90;;;;;;4148558;28;20112;-75
2023/12/05 02:35:18;;;;;;;11.77;7.95;;;4.90;99.90;;;;;;4130898;28;20038;-75
2023/12/05 02:37:43;;;;;;;12.85;8.07;;;4.90;99.90;;;;;;4157509;28;20403;-75
2023/12/05 02:40:20;;;;;;;11.07;7.57;;;4.90;99.90;;;;;;4143384;28;20046;-75
2023/12/05 02:42:23;;;;;;;12.82;7.82;;;4.80;99.90;;;;;;4150217;28;20045;-76
2023/12/05 02:44:26;;;;;;;9.75;6.72;;;4.90;99.90;;;;;;4145660;28;20045;-75
2023/12/05 02:46:28;;;;;;;11.52;6.85;;;4.90;99.90;;;;;;4143151;28;20037;-75
2023/12/05 02:48:29;;;;;;;10.38;7.25;;;4.90;99.90;;;;;;4151482;28;20399;-75
2023/12/05 02:50:29;;;;;;;8.60;6.32;;;4.90;99.90;;;;;;4130777;28;20046;-75
2023/12/05 02:52:30;;;;;;;10.15;6.32;;;4.90;99.90;;;;;;4155649;28;20112;-75
2023/12/05 02:54:31;;;;;;;12.73;8.23;;;4.90;99.90;;;;;;4134193;28;20042;-74
2023/12/05 02:56:32;;;;;;;11.18;7.82;;;4.90;99.90;;;;;;4145142;28;20057;-75
2023/12/05 02:58:32;;;;;;;10.70;7.22;;;4.90;99.90;;;;;;4147345;28;20451;-74
2023/12/05 03:00:33;;;;;;;9.90;6.90;;;4.90;99.90;;;;;;4149066;28;20034;-74
2023/12/05 03:02:34;;;;;;;9.95;7.13;;;4.90;99.90;;;;;;4147556;28;20406;-75
2023/12/05 03:04:34;;;;;;;11.13;6.90;;;5.00;99.90;;;;;;4147344;28;20124;-75
2023/12/05 03:06:35;;;;;;;9.65;6.50;;;5.00;99.90;;;;;;4149345;28;20069;-74
2023/12/05 03:08:35;;;;;;;10.27;7.40;;;5.00;99.90;;;;;;4151476;28;20046;-75
2023/12/05 03:10:36;;;;;;;11.38;6.95;;;5.00;99.90;;;;;;4150378;28;20033;-75
2023/12/05 03:12:37;;;;;;;9.68;6.93;;;5.00;99.90;;;;;;4152930;28;20044;-75
2023/12/05 03:14:37;;;;;;;11.00;7.15;;;5.00;99.90;;;;;;4148170;28;20033;-76
2023/12/05 03:16:38;;;;;;;10.70;7.10;;;5.00;99.90;;;;;;4151621;28;20117;-74
2023/12/05 03:18:39;;;;;;;8.25;6.05;;;5.00;99.90;;;;;;4152210;28;21170;-75
2023/12/05 03:20:40;;;;;;;9.63;6.80;;;5.00;99.90;;;;;;4148769;28;20768;-75
2023/12/05 03:22:40;;;;;;;9.05;7.00;;;5.00;99.90;;;;;;4146333;28;20056;-75
2023/12/05 03:24:41;;;;;;;8.55;6.50;;;5.00;99.90;;;;;;4151688;28;20060;-75
2023/12/05 03:26:42;;;;;;;9.43;6.60;;;5.00;99.90;;;;;;4149665;28;20037;-76
2023/12/05 03:28:42;;;;;;;10.25;6.53;;;5.00;99.90;;;;;;4153245;28;20573;-75
2023/12/05 03:30:43;;;;;;;8.23;5.82;;;5.10;99.90;;;;;;4155245;28;20379;-76
2023/12/05 03:32:43;;;;;;;10.73;6.55;;;5.10;99.90;;;;;;4153526;28;20065;-75
2023/12/05 03:34:47;;;;;;;9.00;6.10;;;5.10;99.90;;;;;;4137166;28;20045;-75
2023/12/05 03:36:47;;;;;;;8.30;5.85;;;5.00;99.90;;;;;;4152252;28;20054;-75
2023/12/05 03:38:48;;;;;;;10.30;7.38;;;5.10;99.90;;;;;;4137831;28;20056;-75
2023/12/05 03:40:48;;;;;;;9.20;6.45;;;5.10;99.90;;;;;;4119941;28;20403;-75
2023/12/05 03:42:49;;;;;;;8.63;6.28;;;5.10;99.90;;;;;;4131007;28;20599;-75
2023/12/05 03:44:49;;;;;;;8.40;6.30;;;5.10;99.90;;;;;;4151576;28;20480;-75
2023/12/05 03:46:50;;;;;;;9.73;6.68;;;5.10;99.90;;;;;;4155647;28;20042;-75
2023/12/05 03:48:51;;;;;;;10.65;7.07;;;5.10;99.90;;;;;;4152315;28;20112;-75
2023/12/05 03:50:51;;;;;;;8.30;5.85;;;5.10;99.90;;;;;;4153415;28;20030;-75
2023/12/05 03:52:52;;;;;;;9.63;6.15;;;5.20;99.90;;;;;;4150082;28;20038;-75
2023/12/05 03:54:53;;;;;;;9.23;6.20;;;5.10;99.90;;;;;;4151799;28;20044;-75
2023/12/05 03:56:53;;;;;;;10.80;6.75;;;5.10;99.90;;;;;;4155748;28;20104;-75
2023/12/05 03:58:54;;;;;;;9.23;6.00;;;5.20;99.90;;;;;;4150932;28;20191;-75
2023/12/05 04:00:54;;;;;;;8.88;6.40;;;5.20;99.90;;;;;;4153489;28;20036;-74
2023/12/05 04:02:55;;;;;;;8.65;6.22;;;5.20;99.90;;;;;;4137734;28;20034;-75
2023/12/05 04:04:56;;;;;;;8.43;6.10;;;5.20;99.90;;;;;;4152710;28;20407;-75
2023/12/05 04:06:56;;;;;;;9.15;6.13;;;5.20;99.90;;;;;;4153206;28;20072;-76
2023/12/05 04:08:57;;;;;;;9.02;5.60;;;5.20;99.90;;;;;;4149980;28;20101;-75
2023/12/05 04:10:57;;;;;;;7.93;5.53;;;5.20;99.90;;;;;;4135143;28;20480;-75
2023/12/05 04:12:58;;;;;;;9.77;6.13;;;5.20;99.90;;;;;;4139225;28;20057;-76
2023/12/05 04:14:59;;;;;;;8.75;5.47;;;5.30;99.90;;;;;;4155796;28;20037;-75
2023/12/05 04:16:59;;;;;;;9.02;5.75;;;5.30;99.90;;;;;;4157121;28;20454;-76
2023/12/05 04:19:00;;;;;;;7.97;5.60;;;5.30;99.90;;;;;;4149867;28;20041;-76
2023/12/05 04:21:01;;;;;;;10.13;6.18;;;5.30;99.90;;;;;;4139047;28;20041;-76
2023/12/05 04:23:01;;;;;;;8.20;6.32;;;5.30;99.90;;;;;;4155296;28;20034;-76
2023/12/05 04:25:03;;;;;;;7.72;5.90;;;5.30;99.90;;;;;;4135512;28;20427;-76
2023/12/05 04:27:04;;;;;;;7.63;6.18;;;5.30;99.90;;;;;;4142246;28;20052;-75
2023/12/05 04:29:05;;;;;;;9.02;5.82;;;5.30;99.90;;;;;;4157410;28;20411;-76
2023/12/05 04:31:05;;;;;;;7.03;5.20;;;5.40;99.90;;;;;;4150164;28;20037;-76
2023/12/05 04:33:06;;;;;;;10.73;6.18;;;5.40;99.90;;;;;;4149413;28;20046;-76
2023/12/05 04:35:07;;;;;;;8.23;5.68;;;5.40;99.90;;;;;;4151223;28;20451;-76
2023/12/05 04:37:08;;;;;;;8.07;5.68;;;5.40;99.90;;;;;;4154716;28;20084;-76
2023/12/05 04:39:09;;;;;;;8.30;6.10;;;5.40;99.90;;;;;;4148841;28;20054;-76
2023/12/05 04:41:09;;;;;;;7.45;5.65;;;5.40;99.90;;;;;;4149094;28;20116;-76
2023/12/05 04:43:10;;;;;;;7.57;5.72;;;5.40;99.90;;;;;;4150698;28;20095;-76
2023/12/05 04:45:11;;;;;;;9.35;6.43;;;5.50;99.90;;;;;;4145866;28;20042;-76
2023/12/05 04:47:12;;;;;;;7.97;5.80;;;5.40;99.90;;;;;;4150798;28;20462;-74
2023/12/05 04:49:12;;;;;;;6.90;5.35;;;5.50;99.90;;;;;;4148506;28;20404;-73
2023/12/05 04:51:18;;;;;;;9.55;6.25;;;5.50;99.90;;;;;;4157391;28;20669;-74
2023/12/05 04:53:19;;;;;;;8.07;6.00;;;5.50;99.90;;;;;;4145547;28;20030;-74
2023/12/05 04:55:19;;;;;;;10.50;6.50;;;5.50;99.90;;;;;;4153513;28;20104;-77
2023/12/05 04:57:20;;;;;;;9.10;5.90;;;5.50;99.90;;;;;;4136956;28;20456;-74
2023/12/05 04:59:20;;;;;;;8.55;6.18;;;5.50;99.90;;;;;;4154127;28;20128;-73
2023/12/05 05:01:21;;;;;;;8.50;5.90;;;5.50;99.90;;;;;;4141201;28;20054;-76
2023/12/05 05:03:22;;;;;;;7.45;5.38;;;5.50;99.90;;;;;;4141841;28;20038;-74
2023/12/05 05:05:22;;;;;;;8.52;6.38;;;5.50;99.90;;;;;;4131704;28;21083;-73
2023/12/05 05:07:23;;;;;;;9.63;6.20;;;5.50;99.90;;;;;;4132264;28;20574;-74
2023/12/05 05:09:24;;;;;;;8.30;5.90;;;5.50;99.90;;;;;;4134989;28;20108;-75
2023/12/05 05:11:24;;;;;;;8.88;6.22;;;5.50;99.90;;;;;;4137849;28;20359;-73
2023/12/05 05:13:25;;;;;;;9.60;6.25;;;5.60;99.90;;;;;;4152581;28;20038;-73
2023/12/05 05:15:25;;;;;;;9.35;6.18;;;5.60;99.90;;;;;;4153117;28;20056;-74
2023/12/05 05:17:26;;;;;;;8.27;5.68;;;5.60;99.90;;;;;;4149526;28;20103;-74
2023/12/05 05:19:26;;;;;;;11.93;7.30;;;5.60;99.90;;;;;;4135943;28;20423;-74
2023/12/05 05:21:27;;;;;;;9.45;6.82;;;5.60;99.90;;;;;;4138895;28;20035;-73
2023/12/05 05:23:27;;;;;;;9.40;6.45;;;5.60;99.90;;;;;;4136514;28;20121;-73
2023/12/05 05:25:28;;;;;;;9.25;6.13;;;5.60;99.90;;;;;;4156070;28;20111;-74
2023/12/05 05:27:29;;;;;;;9.48;6.43;;;5.60;99.90;;;;;;4141624;28;20463;-76
2023/12/05 05:29:29;;;;;;;9.35;7.25;;;5.70;99.90;;;;;;4154338;28;20049;-76
2023/12/05 05:31:30;;;;;;;9.95;6.40;;;5.70;99.90;;;;;;4155917;28;20056;-77
2023/12/05 05:33:30;;;;;;;9.77;6.95;;;5.70;99.90;;;;;;4158131;28;20041;-76
2023/12/05 05:35:31;;;;;;;10.65;6.43;;;5.70;99.90;;;;;;4152445;28;20167;-76
2023/12/05 05:37:32;;;;;;;9.45;6.75;;;5.70;99.90;;;;;;4154082;28;20076;-77
2023/12/05 05:39:32;;;;;;;7.95;6.05;;;5.70;99.90;;;;;;4157238;28;20041;-76
2023/12/05 05:41:33;;;;;;;9.40;6.65;;;5.70;99.90;;;;;;4155343;28;20135;-77
2023/12/05 05:43:34;;;;;;;8.70;6.75;;;5.70;99.90;;;;;;4157484;28;20095;-76
2023/12/05 05:45:34;;;;;;;9.80;7.13;;;5.70;99.90;;;;;;4157077;28;20041;-76
2023/12/05 05:47:35;;;;;;;10.63;7.30;;;5.70;99.90;;;;;;4138248;28;20029;-76
2023/12/05 05:49:36;;;;;;;11.60;7.20;;;5.70;99.90;;;;;;4138074;28;20103;-77
2023/12/05 05:51:36;;;;;;;12.55;8.18;;;5.80;99.90;;;;;;4128055;28;20042;-77
2023/12/05 05:53:37;;;;;;;11.40;7.68;;;5.70;99.90;;;;;;4152441;28;20096;-77
2023/12/05 05:55:37;;;;;;;10.38;7.35;;;5.80;99.90;;;;;;4156097;28;20067;-77
2023/12/05 05:57:38;;;;;;;10.02;7.07;;;5.80;99.90;;;;;;4132956;28;20041;-77
2023/12/05 05:59:42;;;;;;;12.05;8.25;;;5.80;99.90;;;;;;4140940;28;20030;-77
2023/12/05 06:01:46;;;;;;;13.65;8.38;;;5.80;99.90;;;;;;4149438;28;20037;-76
2023/12/05 06:03:47;;;;;;;13.02;9.25;;;5.80;99.90;;;;;;4139962;28;20034;-77
2023/12/05 06:05:48;;;;;;;13.35;9.10;;;5.80;99.90;;;;;;4151849;28;20041;-77
2023/12/05 06:07:49;;;;;;;14.90;9.88;;;5.80;99.90;;;;;;4146482;28;20126;-77
2023/12/05 06:09:50;;;;;;;12.80;9.85;;;5.80;99.90;;;;;;4154038;28;20606;-77
2023/12/05 06:11:50;;;;;;;13.07;9.05;;;5.90;99.90;;;;;;4154079;28;20034;-77
2023/12/05 06:13:51;;;;;;;14.93;8.63;;;5.90;99.90;;;;;;4149141;28;20032;-76
2023/12/05 06:15:52;;;;;;;9.80;7.13;;;5.90;99.90;;;;;;4135708;28;20030;-78
2023/12/05 06:17:52;;;;;;;9.40;6.65;;;5.90;99.90;;;;;;4150791;28;20034;-77
2023/12/05 06:19:53;;;;;;;11.73;6.50;;;5.90;99.90;;;;;;4132985;28;20038;-77
2023/12/05 06:21:53;;;;;;;9.98;6.72;;;5.90;99.90;;;;;;4132793;28;20056;-72
2023/12/05 06:23:55;;;;;;;9.63;6.65;;;6.00;99.90;;;;;;4151480;28;20057;-77
2023/12/05 06:25:55;;;;;;;10.52;6.82;;;5.90;99.90;;;;;;4150736;28;20127;-75
2023/12/05 06:27:56;;;;;;;8.02;6.10;;;6.00;99.90;;;;;;4154051;28;20029;-75
2023/12/05 06:29:57;;;;;;;8.52;6.38;;;6.00;99.90;;;;;;4133936;28;20030;-75
2023/12/05 06:31:57;;;;;;;9.73;6.88;;;6.00;99.90;;;;;;4150055;28;20038;-75
2023/12/05 06:34:01;;;;;;;9.65;6.82;;;6.00;99.90;;;;;;4153097;28;20499;-75
2023/12/05 06:36:02;;;;;;;9.48;6.20;;;6.00;99.90;;;;;;4150903;28;20034;-75
2023/12/05 06:38:03;;;;;;;10.43;6.28;;;6.10;99.90;;;;;;4153216;28;20124;-75
2023/12/05 06:40:04;;;;;;;13.68;5.88;;;6.00;99.90;;;;;;4153704;28;20136;-75
2023/12/05 06:42:05;;;;;;;9.77;6.20;;;6.10;99.90;;;;;;4153407;28;20046;-75
2023/12/05 06:44:06;;;;;;;7.85;5.75;;;6.10;99.90;;;;;;4149379;28;20076;-75
2023/12/05 06:46:07;;;;;;;7.85;5.75;;;6.10;99.90;;;;;;4149293;28;20037;-75
2023/12/05 06:48:07;;;;;;;9.57;6.32;;;6.20;99.90;;;;;;4152119;28;20059;-75
2023/12/05 06:50:10;;;;;;;9.77;6.50;;;6.10;99.90;;;;;;4150497;28;20068;-75
2023/12/05 06:52:12;;;;;;;8.20;5.57;;;6.10;99.90;;;;;;4130983;28;20104;-75
2023/12/05 06:54:13;;;;;;;9.07;5.88;;;6.10;99.90;;;;;;4133771;28;20668;-75
2023/12/05 06:56:15;;;;;;;8.25;5.53;;;6.20;99.90;;;;;;4152030;28;20033;-75
2023/12/05 06:58:15;;;;;;;8.80;5.75;;;6.20;99.90;;;;;;4151706;28;21367;-75
2023/12/05 07:00:18;;;;;;;8.88;5.07;;;6.20;99.90;;;;;;4125306;28;20038;-75
2023/12/05 07:02:18;;;;;;;8.02;5.70;;;6.20;99.90;;;;;;4150384;28;20128;-75
2023/12/05 07:04:19;;;;;;;9.13;5.65;;;6.20;99.90;;;;;;4153814;28;20042;-75
2023/12/05 07:06:20;;;;;;;9.18;5.50;;;6.20;99.90;;;;;;4147524;28;20021;-74
2023/12/05 07:08:21;;;;;;;7.25;5.03;;;6.20;99.90;;;;;;4149980;28;20042;-76
2023/12/05 07:10:21;;;;;;;9.88;5.55;;;6.20;99.90;;;;;;4147764;28;20053;-77
2023/12/05 07:12:22;;;;;;;8.63;5.20;;;6.30;99.90;;;;;;4133787;28;20037;-77
2023/12/05 07:14:22;;;;;;;7.32;5.30;;;6.30;99.90;;;;;;4132288;28;20022;-79
2023/12/05 07:16:23;;;;;;;7.07;5.07;;;6.30;99.90;;;;;;4148758;28;20040;-79
2023/12/05 07:18:24;;;;;;;7.78;5.70;;;6.30;99.90;;;;;;4149055;28;20065;-80
2023/12/05 07:20:24;;;;;;;8.70;5.47;;;6.30;99.90;;;;;;4147871;28;20038;-77
2023/12/05 07:22:25;;;;;;;10.10;5.50;;;6.30;99.90;;;;;;4148284;28;20065;-78
2023/12/05 07:24:25;;;;;;;9.43;5.90;;;6.30;99.90;;;;;;4149559;28;20414;-77
2023/12/05 07:26:26;;;;;;;8.55;6.00;;;6.30;99.90;;;;;;4155323;28;20155;-78
2023/12/05 07:28:29;;;;;;;6.97;5.13;;;6.30;99.90;;;;;;4153929;28;20410;-75
2023/12/05 07:30:30;;;;;;;10.63;5.65;;;6.30;99.90;;;;;;4152952;28;20098;-79
2023/12/05 07:32:31;;;;;;;10.65;6.32;;;6.30;99.90;;;;;;4155078;28;20116;-79
2023/12/05 07:34:32;;;;;;;12.25;6.00;;;6.30;99.90;;;;;;4137858;28;20085;-78
2023/12/05 07:36:32;;;;;;;8.80;5.40;;;6.30;99.90;;;;;;4154484;28;20065;-79
2023/12/05 07:38:33;;;;;;;7.20;4.95;;;6.30;99.90;;;;;;4155700;28;20533;-79
2023/12/05 07:40:33;;;;;;;11.43;4.90;;;6.30;99.90;;;;;;4154426;28;20061;-79
2023/12/05 07:42:34;;;;;;;8.85;5.68;;;6.30;99.90;;;;;;4154538;28;20068;-78
2023/12/05 07:44:35;;;;;;;8.73;5.57;;;6.30;99.90;;;;;;4154044;28;20041;-79
2023/12/05 07:46:40;;;;;;;8.63;5.47;;;6.30;99.90;;;;;;4154901;28;20045;-78
2023/12/05 07:48:41;;;;;;;10.68;5.10;;;6.30;99.90;;;;;;4153629;28;20041;-79
2023/12/05 07:50:43;;;;;;;9.27;5.13;;;6.40;99.90;;;;;;4152580;28;20473;-80
2023/12/05 07:52:50;;;;;;;8.93;4.82;;;6.40;99.90;;;;;;4155157;28;20037;-78
2023/12/05 07:54:51;;;;;;;6.88;5.30;;;6.40;99.90;;;;;;4152433;28;20034;-78
2023/12/05 07:56:51;;;;;;;7.47;5.30;;;6.40;99.90;;;;;;4155151;28;20037;-78
2023/12/05 07:58:52;;;;;;;7.63;5.10;;;6.40;99.90;;;;;;4147899;28;20108;-77
2023/12/05 08:00:53;;;;;;;6.60;4.65;;;6.40;99.90;;;;;;4148793;28;21240;-78
2023/12/05 08:02:53;;;;;;;7.97;5.00;;;6.40;99.90;;;;;;4133609;28;20038;-77
2023/12/05 08:04:54;;;;;;;6.05;4.78;;;6.40;99.90;;;;;;4155509;28;20044;-77
2023/12/05 08:06:54;;;;;;;6.97;4.93;;;6.40;99.90;;;;;;4152844;28;20037;-77
2023/12/05 08:08:55;;;;;;;8.15;5.32;;;6.40;99.90;;;;;;4152126;28;20576;-78
2023/12/05 08:10:57;;;;;;;9.38;5.53;;;6.50;99.90;;;;;;4153077;28;20419;-78
2023/12/05 08:12:58;;;;;;;9.57;5.70;;;6.40;99.90;;;;;;4146000;28;20072;-78
2023/12/05 08:14:58;;;;;;;10.63;5.53;;;6.40;99.90;;;;;;4138489;28;20475;-79
2023/12/05 08:16:59;;;;;;;8.90;4.95;;;6.40;99.90;;;;;;4134854;28;20533;-79
2023/12/05 08:19:00;;;;;;;7.38;4.47;;;6.40;99.90;;;;;;4155802;28;20049;-79
2023/12/05 08:21:00;;;;;;;7.43;5.13;;;6.50;99.90;;;;;;4157511;28;20395;-79
2023/12/05 08:23:01;;;;;;;6.65;4.53;;;6.40;99.90;;;;;;4158646;28;20046;-79
2023/12/05 08:25:02;;;;;;;7.72;4.60;;;6.50;99.90;;;;;;4152680;28;21427;-79
2023/12/05 08:27:03;;;;;;;9.30;5.55;;;6.50;99.90;;;;;;4154051;28;20049;-78
2023/12/05 08:29:04;;;;;;;7.13;4.95;;;6.50;99.90;;;;;;4145109;28;20037;-79
2023/12/05 08:31:06;;;;;;;6.45;4.22;;;6.50;99.90;;;;;;4147000;28;20117;-80
2023/12/05 08:33:08;;;;;;;4.70;3.80;;;6.50;99.90;;;;;;4150705;28;20041;-80
2023/12/05 08:35:09;;;;;;;7.60;4.28;;;6.50;99.90;;;;;;4153822;28;20104;-80
2023/12/05 08:37:10;;;;;;;7.15;4.90;;;6.60;99.90;;;;;;4154327;28;20033;-80
2023/12/05 08:39:12;;;;;;;6.70;4.32;;;6.60;99.90;;;;;;4144833;28;20415;-78
2023/12/05 08:41:19;;;;;;;5.80;4.38;;;6.60;99.90;;;;;;4134633;28;20068;-78
2023/12/05 08:43:19;;;;;;;6.85;4.35;;;6.60;99.90;;;;;;4153119;28;20053;-80
2023/12/05 08:45:20;;;;;;;7.00;4.18;;;6.60;99.90;;;;;;4150955;28;20037;-79
2023/12/05 08:47:21;;;;;;;6.10;4.30;;;6.70;99.90;;;;;;4134852;28;20037;-80
2023/12/05 08:49:21;;;;;;;5.75;4.47;;;6.70;99.90;;;;;;4151281;28;20041;-80
2023/12/05 08:51:22;;;;;;;8.00;4.10;;;6.70;99.90;;;;;;4150905;28;20049;-80
2023/12/05 08:53:23;;;;;;;5.10;3.97;;;6.70;99.90;;;;;;4149776;28;20073;-80
2023/12/05 08:55:24;;;;;;;5.47;4.15;;;6.70;99.90;;;;;;4146247;28;20041;-80
2023/12/05 08:57:25;;;;;;;6.55;4.10;;;6.70;99.90;;;;;;4120636;28;20456;-78
2023/12/05 08:59:25;;;;;;;5.45;3.50;;;6.80;99.90;;;;;;4152492;28;20080;-77
2023/12/05 09:01:28;;;;;;;6.72;3.78;;;6.70;99.90;;;;;;4152478;28;20045;-77
2023/12/05 09:03:29;;;;;;;5.00;3.58;;;6.80;99.90;;;;;;4153499;28;20041;-76
2023/12/05 09:05:29;;;;;;;6.05;4.05;;;6.80;99.90;;;;;;4149165;28;20103;-77
2023/12/05 09:07:31;;;;;;;5.70;3.83;;;6.80;99.90;;;;;;4136526;28;20050;-78
2023/12/05 09:09:31;;;;;;;4.63;3.40;;;6.80;99.90;;;;;;4144822;28;20041;-78
2023/12/05 09:11:32;;;;;;;7.93;4.25;;;6.80;99.90;;;;;;4140876;28;20533;-77
2023/12/05 09:13:33;;;;;;;5.65;3.72;;;6.80;99.90;;;;;;4137884;28;20392;-77
2023/12/05 09:15:34;;;;;;;7.43;3.70;;;6.80;99.90;;;;;;4152489;28;20047;-77
2023/12/05 09:17:34;;;;;;;6.57;3.75;;;6.80;99.90;;;;;;4154002;28;20029;-77
2023/12/05 09:19:35;;;;;;;6.85;4.05;;;6.80;99.90;;;;;;4149481;28;20049;-79
2023/12/05 09:21:36;;;;;;;6.60;4.18;;;6.90;99.90;;;;;;4152151;28;20038;-77
2023/12/05 09:23:37;;;;;;;5.82;3.83;;;6.90;99.90;;;;;;4129091;28;20041;-77
2023/12/05 09:25:38;;;;;;;7.38;3.92;;;6.90;99.90;;;;;;4150871;28;20149;-77
2023/12/05 09:27:39;;;;;;;5.38;3.75;;;6.90;99.90;;;;;;4153322;28;20037;-80
2023/12/05 09:29:39;;;;;;;5.93;3.78;;;6.90;99.90;;;;;;4152392;28;20079;-80
2023/12/05 09:31:40;;;;;;;6.18;3.60;;;6.90;99.90;;;;;;4151058;28;20855;-80
2023/12/05 09:33:41;;;;;;;5.72;3.70;;;6.90;99.90;;;;;;4153799;28;20510;-79
2023/12/05 09:35:41;;;;;;;5.13;3.55;;;6.90;99.90;;;;;;4153275;28;20037;-79
2023/12/05 09:37:42;;;;;;;4.80;3.20;;;7.00;99.90;;;;;;4153471;28;20044;-80
2023/12/05 09:39:43;;;;;;;5.65;3.28;;;7.00;99.90;;;;;;4150940;28;20041;-79
2023/12/05 09:42:05;;;;;;;4.60;3.03;;;7.00;99.90;;;;;;4150401;28;20103;-80
2023/12/05 09:44:08;;;;;;;4.03;2.67;;;7.00;99.90;;;;;;4152791;28;20041;-79
2023/12/05 09:46:10;;;;;;;5.03;3.28;;;7.00;99.90;;;;;;4150054;28;20057;-80
2023/12/05 09:48:11;;;;;;;6.45;3.28;;;7.00;99.90;;;;;;4150297;28;20112;-80
2023/12/05 09:50:12;;;;;;;4.43;2.90;;;7.00;99.90;;;;;;4152127;28;20049;-80
2023/12/05 09:52:13;;;;;;;3.60;2.75;;;7.10;99.90;;;;;;4151591;28;20053;-80
2023/12/05 09:54:15;;;;;;;3.03;2.40;;;7.10;99.90;;;;;;4152269;28;20107;-80
2023/12/05 09:56:16;;;;;;;3.33;2.50;;;7.10;99.90;;;;;;4151469;28;20053;-81
2023/12/05 09:58:17;;;;;;;4.78;2.90;;;7.10;99.90;;;;;;4152403;28;21924;-79
2023/12/05 10:00:18;;;;;;;5.20;2.85;;;7.10;99.90;;;;;;4131961;28;20137;-80
2023/12/05 10:02:20;;;;;;;4.85;2.80;;;7.10;99.90;;;;;;4133589;28;20503;-80
2023/12/05 10:04:21;;;;;;;;;;;7.10;99.90;;;;;;4147591;28;20072;-80
2023/12/05 10:06:25;;;;;;;3.78;2.50;;;7.20;99.90;;;;;;4147941;28;19924;-81
2023/12/05 10:08:26;;;;;;;7.18;2.83;;;7.20;99.90;;;;;;4149398;28;20495;-77
2023/12/05 10:10:29;;;;;;;5.05;2.95;;;7.20;99.90;;;;;;4151527;28;20064;-76
2023/12/05 10:12:31;;;;;;;4.93;2.83;;;7.20;99.90;;;;;;4152505;28;20480;-78
2023/12/05 10:14:33;;;;;;;4.05;2.83;;;7.20;99.90;;;;;;4148720;28;20069;-78
2023/12/05 10:16:35;;;;;;;3.20;2.17;;;7.20;99.90;;;;;;4149842;28;20479;-78
2023/12/05 10:18:37;;;;;;;3.47;2.35;;;7.20;99.90;;;;;;4149936;28;20483;-78
2023/12/05 10:20:38;;;;;;;3.90;2.28;;;7.20;99.90;;;;;;4150748;28;20765;-78
2023/12/05 10:22:38;;;;;;;4.60;2.28;;;7.20;99.90;;;;;;4151884;28;20041;-77
2023/12/05 10:24:44;;;;;;;4.10;2.38;;;7.20;99.90;;;;;;4151801;28;20057;-77
2023/12/05 10:26:46;;;;;;;3.22;2.33;;;7.30;99.90;;;;;;4150820;28;20091;-77
2023/12/05 10:28:50;;;;;;;;;;;7.30;99.90;;;;;;4151876;28;20105;-77
2023/12/05 10:30:51;;;;;;;4.80;2.67;;;7.30;99.90;;;;;;4150640;28;19917;-78
2023/12/05 10:32:52;;;;;;;6.00;2.58;;;7.30;99.90;;;;;;4153106;28;20079;-77
2023/12/05 10:34:54;;;;;;;3.05;2.10;;;7.30;99.90;;;;;;4145656;28;20033;-77
2023/12/05 10:37:03;;;;;;;6.93;2.53;;;7.30;99.90;;;;;;4128797;28;20043;-75